Time;durP1;ratioP1;P1;durP2;ratioP2;P2;SDS_P1;SDS_P2;PMS_P1;PMS_P2;Temp;Humidity;BMP_temperature;BMP_pressure;BME280_temperature;BME280_humidity;BME280_pressure;Samples;Min_cycle;Max_cycle;Signal;HPM_P1;HPM_P2
2024/01/08 00:02:15;;;;;;;;;;;-2.00;99.90;;;;;;5046177;28;20672;-31
2024/01/08 00:04:42;;;;;;;;;;;-2.00;99.90;;;;;;5046907;28;20438;-31
2024/01/08 00:07:10;;;;;;;;;;;-1.90;99.90;;;;;;5054111;28;19987;-32
2024/01/08 00:09:36;;;;;;;;;;;-2.00;99.90;;;;;;5053152;28;19928;-31
2024/01/08 00:12:03;;;;;;;;;;;-2.00;99.90;;;;;;5069954;28;19980;-32
2024/01/08 00:14:30;;;;;;;;;;;-2.00;99.90;;;;;;5068394;28;19924;-32
2024/01/08 00:16:57;;;;;;;;;;;-2.00;99.90;;;;;;5053220;28;19924;-31
2024/01/08 00:19:24;;;;;;;;;;;-2.00;99.90;;;;;;5052352;28;19974;-32
2024/01/08 00:21:50;;;;;;;;;;;-2.00;99.90;;;;;;5071020;28;19978;-32
2024/01/08 00:24:18;;;;;;;;;;;-2.10;99.90;;;;;;5072047;28;20384;-32
2024/01/08 00:26:45;;;;;;;;;;;-2.10;99.90;;;;;;5057075;28;19932;-31
2024/01/08 00:29:12;;;;;;;;;;;-2.10;99.90;;;;;;5075458;28;19929;-31
2024/01/08 00:31:38;;;;;;;;;;;-2.10;99.90;;;;;;5070796;28;19970;-31
2024/01/08 00:34:05;;;;;;;;;;;-2.10;99.90;;;;;;5056513;28;19978;-31
2024/01/08 00:36:32;;;;;;;;;;;-2.10;99.90;;;;;;5055513;28;20445;-31
2024/01/08 00:38:58;;;;;;;;;;;-2.10;99.90;;;;;;5074589;28;19928;-32
2024/01/08 00:41:26;;;;;;;;;;;-2.10;99.90;;;;;;5074462;28;19929;-31
2024/01/08 00:43:53;;;;;;;;;;;-2.10;99.90;;;;;;5056891;28;20134;-31
2024/01/08 00:46:19;;;;;;;;;;;-2.20;99.90;;;;;;5051408;28;19956;-32
2024/01/08 00:48:46;;;;;;;;;;;-2.20;99.90;;;;;;5055832;28;19989;-35
2024/01/08 00:51:13;;;;;;;;;;;-2.10;99.90;;;;;;5074117;28;20321;-31
2024/01/08 00:53:39;;;;;;;;;;;-2.20;99.90;;;;;;5056770;28;19925;-32
2024/01/08 00:56:06;;;;;;;;;;;-2.20;99.90;;;;;;5055265;28;19925;-32
2024/01/08 00:58:35;;;;;;;;;;;-2.10;99.90;;;;;;5056334;28;20013;-32
2024/01/08 01:01:02;;;;;;;;;;;-2.20;99.90;;;;;;5055805;28;19928;-31
2024/01/08 01:03:28;;;;;;;;;;;-2.20;99.90;;;;;;5055531;28;19929;-31
2024/01/08 01:05:56;;;;;;;;;;;-2.20;99.90;;;;;;5054692;28;20268;-31
2024/01/08 01:08:23;;;;;;;;;;;-2.20;99.90;;;;;;5057120;28;19970;-31
2024/01/08 01:10:49;;;;;;;;;;;-2.20;99.90;;;;;;5054661;28;19960;-31
2024/01/08 01:13:16;;;;;;;;;;;-2.30;99.90;;;;;;5057333;28;19990;-31
2024/01/08 01:15:44;;;;;;;;;;;-2.30;99.90;;;;;;5052398;28;20451;-31
2024/01/08 01:18:10;;;;;;;;;;;-2.30;99.90;;;;;;5071239;28;19978;-31
2024/01/08 01:20:37;;;;;;;;;;;-2.30;99.90;;;;;;5056309;28;19982;-32
2024/01/08 01:23:04;;;;;;;;;;;-2.30;99.90;;;;;;5056572;28;19925;-32
2024/01/08 01:25:30;;;;;;;;;;;-2.30;99.90;;;;;;5055396;28;19967;-32
2024/01/08 01:27:57;;;;;;;;;;;-2.30;99.90;;;;;;5051863;28;19982;-33
2024/01/08 01:30:24;;;;;;;;;;;-1.90;99.90;;;;;;5049762;28;19924;-32
2024/01/08 01:32:52;;;;;;;;;;;-2.20;99.90;;;;;;5073164;28;19970;-31
2024/01/08 01:35:19;;;;;;;;;;;-2.20;99.90;;;;;;5055861;28;19982;-32
2024/01/08 01:37:50;;;;;;;;;;;-2.20;99.90;;;;;;5072382;28;19978;-33
2024/01/08 01:40:17;;;;;;;;;;;-2.10;99.90;;;;;;5055143;28;20446;-31
2024/01/08 01:42:44;;;;;;;;;;;-2.10;99.90;;;;;;5073198;28;20391;-32
2024/01/08 01:45:10;;;;;;;;;;;-2.10;99.90;;;;;;5046968;28;19967;-32
2024/01/08 01:47:37;;;;;;;;;;;-2.10;99.90;;;;;;5055509;28;19924;-31
2024/01/08 01:50:05;;;;;;;;;;;-2.00;99.90;;;;;;5071818;28;19924;-32
2024/01/08 01:52:32;;;;;;;;;;;-2.00;99.90;;;;;;5054943;28;19964;-31
2024/01/08 01:54:58;;;;;;;;;;;-2.00;99.90;;;;;;5053373;28;21141;-32
2024/01/08 01:57:25;;;;;;;;;;;-2.00;99.90;;;;;;5066916;28;19971;-32
2024/01/08 01:59:52;;;;;;;;;;;-2.00;99.90;;;;;;5055268;28;19924;-32
2024/01/08 02:02:19;;;;;;;;;;;-2.00;99.90;;;;;;5052855;28;19974;-31
2024/01/08 02:04:45;;;;;;;;;;;-1.90;99.90;;;;;;5060549;28;19982;-32
2024/01/08 02:07:13;;;;;;;;;;;-1.90;99.90;;;;;;5049076;28;19928;-30
2024/01/08 02:09:40;;;;;;;;;;;-1.90;99.90;;;;;;5050638;28;19929;-30
2024/01/08 02:12:07;;;;;;;;;;;-1.90;99.90;;;;;;5052842;28;20189;-30
2024/01/08 02:14:34;;;;;;;;;;;-1.80;99.90;;;;;;5053932;28;20029;-32
2024/01/08 02:17:00;;;;;;;;;;;-1.80;99.90;;;;;;5072731;28;19925;-31
2024/01/08 02:19:27;;;;;;;;;;;-1.80;99.90;;;;;;5052034;28;20026;-31
2024/01/08 02:21:54;;;;;;;;;;;-1.80;99.90;;;;;;5054253;28;20380;-32
2024/01/08 02:24:22;;;;;;;;;;;-1.70;99.90;;;;;;5071280;28;19924;-32
2024/01/08 02:26:48;;;;;;;;;;;-1.70;99.90;;;;;;5055119;28;19959;-32
2024/01/08 02:29:15;;;;;;;;;;;-1.50;99.90;;;;;;5055011;28;19925;-31
2024/01/08 02:31:42;;;;;;;;;;;-1.60;99.90;;;;;;5051311;28;19925;-31
2024/01/08 02:34:08;;;;;;;;;;;-1.60;99.90;;;;;;5072409;28;19929;-33
2024/01/08 02:36:35;;;;;;;;;;;-1.60;99.90;;;;;;5052271;28;19982;-32
2024/01/08 02:39:01;;;;;;;;;;;-1.50;99.90;;;;;;5048587;28;19924;-33
2024/01/08 02:41:29;;;;;;;;;;;-1.60;99.90;;;;;;5071644;28;19928;-33
2024/01/08 02:43:56;;;;;;;;;;;-1.50;99.90;;;;;;5055385;28;19979;-32
2024/01/08 02:46:23;;;;;;;;;;;-1.50;99.90;;;;;;5053428;28;20378;-33
2024/01/08 02:48:49;;;;;;;;;;;-1.50;99.90;;;;;;5053269;28;20330;-32
2024/01/08 02:51:16;;;;;;;;;;;-1.40;99.90;;;;;;5052510;28;19970;-32
2024/01/08 02:53:43;;;;;;;;;;;-1.40;99.90;;;;;;5054595;28;19985;-32
2024/01/08 02:56:18;;;;;;;;;;;-1.40;99.90;;;;;;5072090;28;19924;-32
2024/01/08 02:58:45;;;;;;;;;;;-1.40;99.90;;;;;;5035257;28;20051;-32
2024/01/08 03:01:12;;;;;;;;;;;-1.40;99.90;;;;;;5042231;28;19924;-32
2024/01/08 03:03:39;;;;;;;;;;;-1.40;99.90;;;;;;5052821;28;19924;-32
2024/01/08 03:06:06;;;;;;;;;;;-1.40;99.90;;;;;;5051049;28;19924;-32
2024/01/08 03:08:31;;;;;;;;;;;-1.30;99.90;;;;;;5070208;28;20402;-33
2024/01/08 03:10:58;;;;;;;;;;;-1.30;99.90;;;;;;5054324;28;19961;-31
2024/01/08 03:13:24;;;;;;;;;;;-1.30;99.90;;;;;;5053805;28;20433;-33
2024/01/08 03:15:52;;;;;;;;;;;-1.30;99.90;;;;;;5053592;28;19924;-32
2024/01/08 03:18:19;;;;;;;;;;;-1.30;99.90;;;;;;5070605;28;19925;-31
2024/01/08 03:20:46;;;;;;;;;;;-1.20;99.90;;;;;;5051697;28;19924;-34
2024/01/08 03:23:12;;;;;;;;;;;-1.20;99.90;;;;;;5070326;28;19925;-30
2024/01/08 03:25:39;;;;;;;;;;;-1.20;99.90;;;;;;5051492;28;20364;-31
2024/01/08 03:28:06;;;;;;;;;;;-1.10;99.90;;;;;;5046347;28;19925;-32
2024/01/08 03:30:32;;;;;;;;;;;-1.20;99.90;;;;;;5054391;28;19993;-33
2024/01/08 03:33:00;;;;;;;;;;;-1.10;99.90;;;;;;5053205;28;19976;-33
2024/01/08 03:35:27;;;;;;;;;;;-1.20;99.90;;;;;;5052298;28;19924;-32
2024/01/08 03:37:53;;;;;;;;;;;-1.10;99.90;;;;;;5050342;28;19928;-31
2024/01/08 03:40:20;;;;;;;;;;;-1.10;99.90;;;;;;5053708;28;19932;-33
2024/01/08 03:42:47;;;;;;;;;;;-1.00;99.90;;;;;;5053685;28;19975;-31
2024/01/08 03:45:14;;;;;;;;;;;-1.10;99.90;;;;;;5070482;28;19932;-31
2024/01/08 03:47:40;;;;;;;;;;;-1.00;99.90;;;;;;5053399;28;19928;-31
2024/01/08 03:50:09;;;;;;;;;;;-1.00;99.90;;;;;;5053712;28;20372;-32
2024/01/08 03:52:36;;;;;;;;;;;-1.00;99.90;;;;;;5053028;28;19924;-31
2024/01/08 03:55:02;;;;;;;;;;;-1.00;99.90;;;;;;5051046;28;19954;-33
2024/01/08 03:57:29;;;;;;;;;;;-1.00;99.90;;;;;;5071138;28;19924;-32
2024/01/08 03:59:55;;;;;;;;;;;-1.00;99.90;;;;;;5057245;28;19981;-32
2024/01/08 04:02:22;;;;;;;;;;;-1.00;99.90;;;;;;5055820;28;19970;-32
2024/01/08 04:04:49;;;;;;;;;;;-1.00;99.90;;;;;;5052995;28;20751;-33
2024/01/08 04:07:17;;;;;;;;;;;-0.90;99.90;;;;;;5057958;28;19929;-31
2024/01/08 04:09:44;;;;;;;;;;;-1.00;99.90;;;;;;5057485;28;19977;-32
2024/01/08 04:12:10;;;;;;;;;;;-1.00;99.90;;;;;;5057696;28;20388;-32
2024/01/08 04:14:37;;;;;;;;;;;-1.00;99.90;;;;;;5056732;28;20009;-32
2024/01/08 04:17:04;;;;;;;;;;;-1.00;99.90;;;;;;5054716;28;19936;-32
2024/01/08 04:19:30;;;;;;;;;;;-1.00;99.90;;;;;;5073840;28;19978;-33
2024/01/08 04:21:57;;;;;;;;;;;-1.00;99.90;;;;;;5056499;28;19932;-32
2024/01/08 04:24:25;;;;;;;;;;;-1.00;99.90;;;;;;5057601;28;20372;-32
2024/01/08 04:26:52;;;;;;;;;;;-1.00;99.90;;;;;;5073982;28;19947;-31
2024/01/08 04:29:18;;;;;;;;;;;-1.00;99.90;;;;;;5056393;28;20437;-32
2024/01/08 04:31:45;;;;;;;;;;;-1.00;99.90;;;;;;5072139;28;19925;-33
2024/01/08 04:34:12;;;;;;;;;;;-1.00;99.90;;;;;;5055554;28;19933;-31
2024/01/08 04:36:42;;;;;;;;;;;-1.00;99.90;;;;;;5045253;28;19928;-31
2024/01/08 04:39:12;;;;;;;;;;;-1.00;99.90;;;;;;5048307;28;19925;-34
2024/01/08 04:41:40;;;;;;;;;;;-1.00;99.90;;;;;;5047201;28;19964;-32
2024/01/08 04:44:07;;;;;;;;;;;-1.00;99.90;;;;;;5052434;28;19963;-33
2024/01/08 04:46:33;;;;;;;;;;;-1.00;99.90;;;;;;5038769;28;19932;-32
2024/01/08 04:49:00;;;;;;;;;;;-1.00;99.90;;;;;;5068787;28;19924;-32
2024/01/08 04:51:27;;;;;;;;;;;-1.00;99.90;;;;;;5057372;28;20359;-31
2024/01/08 04:53:54;;;;;;;;;;;-1.00;99.90;;;;;;5055765;28;19960;-32
2024/01/08 04:56:21;;;;;;;;;;;-1.10;99.90;;;;;;5054371;28;20372;-30
2024/01/08 04:58:49;;;;;;;;;;;-1.10;99.90;;;;;;5045908;28;19925;-31
2024/01/08 05:01:16;;;;;;;;;;;-1.10;99.90;;;;;;5054489;28;19932;-30
2024/01/08 05:03:43;;;;;;;;;;;-1.10;99.90;;;;;;5051752;28;19924;-33
2024/01/08 05:06:10;;;;;;;;;;;-1.20;99.90;;;;;;5042673;28;20332;-31
2024/01/08 05:08:37;;;;;;;;;;;-1.00;99.90;;;;;;5062020;28;19928;-31
2024/01/08 05:11:04;;;;;;;;;;;-1.10;99.90;;;;;;5055312;28;19928;-32
2024/01/08 05:13:31;;;;;;;;;;;-1.20;99.90;;;;;;5056671;28;19924;-32
2024/01/08 05:15:59;;;;;;;;;;;-1.20;99.90;;;;;;5055769;28;19928;-33
2024/01/08 05:18:25;;;;;;;;;;;-1.20;99.90;;;;;;5055819;28;19956;-32
2024/01/08 05:20:52;;;;;;;;;;;-1.20;99.90;;;;;;5050493;28;19925;-31
2024/01/08 05:23:19;;;;;;;;;;;-1.20;99.90;;;;;;5058505;28;19933;-32
2024/01/08 05:25:45;;;;;;;;;;;-1.30;99.90;;;;;;5055373;28;19929;-32
2024/01/08 05:28:12;;;;;;;;;;;-1.30;99.90;;;;;;5054351;28;19925;-31
2024/01/08 05:30:39;;;;;;;;;;;-1.40;99.90;;;;;;5053077;28;19929;-31
2024/01/08 05:33:06;;;;;;;;;;;-1.40;99.90;;;;;;5055040;28;19928;-31
2024/01/08 05:35:34;;;;;;;;;;;-1.40;99.90;;;;;;5073595;28;19979;-30
2024/01/08 05:38:01;;;;;;;;;;;-1.40;99.90;;;;;;5055293;28;19967;-31
2024/01/08 05:40:28;;;;;;;;;;;-1.40;99.90;;;;;;5055673;28;19932;-31
2024/01/08 05:42:55;;;;;;;;;;;-1.40;99.90;;;;;;5051725;28;20273;-32
2024/01/08 05:45:23;;;;;;;;;;;-1.40;99.90;;;;;;5070259;28;19925;-31
2024/01/08 05:47:50;;;;;;;;;;;-1.50;99.90;;;;;;5054733;28;19925;-31
2024/01/08 05:50:18;;;;;;;;;;;-1.50;99.90;;;;;;5053069;28;19982;-31
2024/01/08 05:52:45;;;;;;;;;;;-1.40;99.90;;;;;;5072999;28;19924;-30
2024/01/08 05:55:13;;;;;;;;;;;-1.50;99.90;;;;;;5054887;28;20375;-30
2024/01/08 05:57:40;;;;;;;;;;;-1.50;99.90;;;;;;5072450;28;20372;-32
2024/01/08 06:00:07;;;;;;;;;;;-1.50;99.90;;;;;;5051937;28;19974;-31
2024/01/08 06:02:34;;;;;;;;;;;-1.50;99.90;;;;;;5052535;28;19932;-32
2024/01/08 06:05:00;;;;;;;;;;;-1.50;99.90;;;;;;5073210;28;19965;-31
2024/01/08 06:07:28;;;;;;;;;;;-1.50;99.90;;;;;;5073430;28;20338;-30
2024/01/08 06:09:55;;;;;;;;;;;-1.50;99.90;;;;;;5055410;28;19993;-31
2024/01/08 06:12:21;;;;;;;;;;;-1.40;99.90;;;;;;5054839;28;20390;-31
2024/01/08 06:14:49;;;;;;;;;;;-1.50;99.90;;;;;;5048187;28;19925;-34
2024/01/08 06:17:15;;;;;;;;;;;-1.50;99.90;;;;;;5050202;28;19931;-32
2024/01/08 06:19:43;;;;;;;;;;;-1.50;99.90;;;;;;5048796;28;19978;-32
2024/01/08 06:22:09;;;;;;;;;;;-1.40;99.90;;;;;;5049372;28;19925;-31
2024/01/08 06:24:37;;;;;;;;;;;-1.50;99.90;;;;;;5051989;28;19983;-31
2024/01/08 06:27:04;;;;;;;;;;;-1.40;99.90;;;;;;5056258;28;19933;-31
2024/01/08 06:29:31;;;;;;;;;;;-1.50;99.90;;;;;;5045769;28;20019;-32
2024/01/08 06:31:58;;;;;;;;;;;-1.40;99.90;;;;;;5055365;28;19931;-31
2024/01/08 06:34:24;;;;;;;;;;;-1.40;99.90;;;;;;5041866;28;19971;-32
2024/01/08 06:36:51;;;;;;;;;;;-1.40;99.90;;;;;;5052227;28;20372;-32
2024/01/08 06:39:18;;;;;;;;;;;-1.40;99.90;;;;;;5040049;28;19924;-31
2024/01/08 06:41:46;;;;;;;;;;;-1.40;99.90;;;;;;5048133;28;19983;-32
2024/01/08 06:44:12;;;;;;;;;;;-1.40;99.90;;;;;;5046248;28;19925;-31
2024/01/08 06:46:39;;;;;;;;;;;-1.40;99.90;;;;;;5022721;22;19966;-32
2024/01/08 06:49:06;;;;;;;;;;;-1.40;99.90;;;;;;5069865;28;19924;-32
2024/01/08 06:51:38;;;;;;;;;;;-1.40;99.90;;;;;;5070470;28;19978;-32
2024/01/08 06:54:04;;;;;;;;;;;-1.40;99.90;;;;;;5070996;28;19925;-32
2024/01/08 06:56:31;;;;;;;;;;;-1.40;99.90;;;;;;5072844;28;19958;-32
2024/01/08 06:59:01;;;;;;;;;;;-1.40;99.90;;;;;;5063008;28;19960;-33
2024/01/08 07:01:27;;;;;;;;;;;-1.40;99.90;;;;;;5051421;28;19982;-32
2024/01/08 07:03:54;;;;;;;;;;;-1.30;99.90;;;;;;5051536;28;19991;-32
2024/01/08 07:06:21;;;;;;;;;;;-1.30;99.90;;;;;;5051709;28;19929;-32
2024/01/08 07:08:47;;;;;;;;;;;-1.30;99.90;;;;;;5051478;28;19974;-31
2024/01/08 07:11:19;;;;;;;;;;;-1.30;99.90;;;;;;5052649;28;20032;-32
2024/01/08 07:13:46;;;;;;;;;;;-1.20;99.90;;;;;;5051822;28;19967;-32
2024/01/08 07:16:14;;;;;;;;;;;-1.30;99.90;;;;;;5051540;28;19925;-31
2024/01/08 07:18:41;;;;;;;;;;;-1.30;99.90;;;;;;5051566;28;19925;-31
2024/01/08 07:21:09;;;;;;;;;;;-1.10;99.90;;;;;;5051489;28;19966;-32
2024/01/08 07:23:35;;;;;;;;;;;-1.30;99.90;;;;;;5051691;28;19931;-32
2024/01/08 07:26:02;;;;;;;;;;;-1.20;99.90;;;;;;5051461;28;19925;-31
2024/01/08 07:28:29;;;;;;;;;;;-1.20;99.90;;;;;;5051226;28;20387;-32
2024/01/08 07:30:55;;;;;;;;;;;-1.20;99.90;;;;;;5051296;28;19929;-32
2024/01/08 07:33:23;;;;;;;;;;;-1.20;99.90;;;;;;5050650;28;19924;-31
2024/01/08 07:35:50;;;;;;;;;;;-1.10;99.90;;;;;;5051645;28;19951;-31
2024/01/08 07:38:18;;;;;;;;;;;-1.20;99.90;;;;;;5051318;28;20372;-32
2024/01/08 07:40:45;;;;;;;;;;;-1.20;99.90;;;;;;5051410;28;19932;-31
2024/01/08 07:43:11;;;;;;;;;;;-1.10;99.90;;;;;;5051222;28;19929;-31
2024/01/08 07:45:38;;;;;;;;;;;-1.10;99.90;;;;;;5051355;28;19925;-33
2024/01/08 07:48:05;;;;;;;;;;;-1.20;99.90;;;;;;5063116;28;20338;-32
2024/01/08 07:50:33;;;;;;;;;;;-1.10;99.90;;;;;;5071515;28;19928;-33
2024/01/08 07:52:59;;;;;;;;;;;-1.10;99.90;;;;;;5071195;28;19924;-31
2024/01/08 07:55:26;;;;;;;;;;;-1.10;99.90;;;;;;5071614;28;19924;-32
2024/01/08 07:57:53;;;;;;;;;;;-1.10;99.90;;;;;;5071109;28;19925;-33
2024/01/08 08:00:21;;;;;;;;;;;-1.00;99.90;;;;;;5072462;28;19924;-32
2024/01/08 08:02:48;;;;;;;;;;;-1.10;99.90;;;;;;5071276;28;19924;-31
2024/01/08 08:05:16;;;;;;;;;;;-1.00;99.90;;;;;;5071488;28;19924;-34
2024/01/08 08:07:44;;;;;;;;;;;-1.00;99.90;;;;;;5071466;28;19929;-32
2024/01/08 08:10:11;;;;;;;;;;;-1.00;99.90;;;;;;5071179;28;19978;-32
2024/01/08 08:12:37;;;;;;;;;;;-1.00;99.90;;;;;;5071086;28;19924;-31
2024/01/08 08:15:04;;;;;;;;;;;-0.90;99.90;;;;;;5070949;28;19924;-32
2024/01/08 08:17:30;;;;;;;;;;;-0.90;99.90;;;;;;5072196;28;19928;-32
2024/01/08 08:19:57;;;;;;;;;;;-0.90;99.90;;;;;;5071130;28;20273;-32
2024/01/08 08:22:23;;;;;;;;;;;-0.80;99.90;;;;;;5071186;28;19925;-31
2024/01/08 08:24:51;;;;;;;;;;;-0.80;99.90;;;;;;5070917;28;20350;-31
2024/01/08 08:27:18;;;;;;;;;;;-0.90;99.90;;;;;;5070854;28;20453;-32
2024/01/08 08:29:45;;;;;;;;;;;-0.80;99.90;;;;;;5070868;28;19971;-32
2024/01/08 08:32:12;;;;;;;;;;;-0.80;99.90;;;;;;5070886;28;19929;-32
2024/01/08 08:34:39;;;;;;;;;;;-0.80;99.90;;;;;;5072092;28;20340;-31
2024/01/08 08:37:07;;;;;;;;;;;-0.80;99.90;;;;;;5070558;28;19967;-32
2024/01/08 08:39:34;;;;;;;;;;;-0.80;99.90;;;;;;5070594;28;19924;-32
2024/01/08 08:42:02;;;;;;;;;;;-0.70;99.90;;;;;;5070693;28;19975;-34
2024/01/08 08:44:29;;;;;;;;;;;-0.70;99.90;;;;;;5070902;28;20357;-31
2024/01/08 08:46:57;;;;;;;;;;;-0.70;99.90;;;;;;5075297;28;19925;-32
2024/01/08 08:49:23;;;;;;;;;;;-0.70;99.90;;;;;;5074681;28;19925;-32
2024/01/08 08:51:50;;;;;;;;;;;-0.70;99.90;;;;;;5074008;28;20037;-32
2024/01/08 08:54:16;;;;;;;;;;;-0.70;99.90;;;;;;5074249;28;19963;-33
2024/01/08 08:56:43;;;;;;;;;;;-0.70;99.90;;;;;;5074211;28;20371;-31
2024/01/08 08:59:11;;;;;;;;;;;-0.70;99.90;;;;;;5075000;28;19986;-31
2024/01/08 09:01:38;;;;;;;;;;;-0.70;99.90;;;;;;5074300;28;19978;-31
2024/01/08 09:04:04;;;;;;;;;;;-0.60;99.90;;;;;;5074268;28;19924;-33
2024/01/08 09:06:33;;;;;;;;;;;-0.60;99.90;;;;;;5074200;28;20388;-31
2024/01/08 09:09:00;;;;;;;;;;;-0.60;99.90;;;;;;5075109;28;20322;-32
2024/01/08 09:11:28;;;;;;;;;;;-0.60;99.90;;;;;;5074926;28;19979;-32
2024/01/08 09:13:54;;;;;;;;;;;-0.60;99.90;;;;;;5073864;28;19928;-31
2024/01/08 09:16:23;;;;;;;;;;;-0.60;99.90;;;;;;5074052;28;19954;-33
2024/01/08 09:18:49;;;;;;;;;;;-0.60;99.90;;;;;;5074868;28;19931;-31
2024/01/08 09:21:17;;;;;;;;;;;-0.50;99.90;;;;;;5074983;28;20005;-32
2024/01/08 09:23:43;;;;;;;;;;;-0.40;99.90;;;;;;5074951;28;19928;-32
2024/01/08 09:26:10;;;;;;;;;;;-0.50;99.90;;;;;;5073814;28;19962;-32
2024/01/08 09:28:37;;;;;;;;;;;-0.50;99.90;;;;;;5074490;28;19924;-31
2024/01/08 09:31:04;;;;;;;;;;;-0.40;99.90;;;;;;5073842;28;19924;-32
2024/01/08 09:33:32;;;;;;;;;;;-0.50;99.90;;;;;;5073384;28;19967;-32
2024/01/08 09:35:59;;;;;;;;;;;-0.50;99.90;;;;;;5074756;28;19925;-31
2024/01/08 09:38:25;;;;;;;;;;;-0.40;99.90;;;;;;5073357;28;20296;-32
2024/01/08 09:40:52;;;;;;;;;;;-0.40;99.90;;;;;;5073462;28;19925;-32
2024/01/08 09:43:20;;;;;;;;;;;-0.40;99.90;;;;;;5073281;28;19924;-31
2024/01/08 09:45:50;;;;;;;;;;;-0.40;99.90;;;;;;5074476;28;19931;-31
2024/01/08 09:48:16;;;;;;;;;;;-0.30;99.90;;;;;;5073028;28;20324;-32
2024/01/08 09:50:44;;;;;;;;;;;-0.40;99.90;;;;;;5073193;28;20442;-31
2024/01/08 09:53:11;;;;;;;;;;;-0.30;99.90;;;;;;5073006;28;20392;-30
2024/01/08 09:55:38;;;;;;;;;;;-0.30;99.90;;;;;;5072872;28;19928;-31
2024/01/08 09:58:06;;;;;;;;;;;-0.20;99.90;;;;;;5074113;28;19928;-30
2024/01/08 10:00:33;;;;;;;;;;;-0.30;99.90;;;;;;5073080;28;19928;-31
2024/01/08 10:02:59;;;;;;;;;;;-0.30;99.90;;;;;;5073263;28;19924;-31
2024/01/08 10:05:27;;;;;;;;;;;-0.30;99.90;;;;;;5073248;28;19924;-31
2024/01/08 10:07:55;;;;;;;;;;;-0.20;99.90;;;;;;5072966;28;19974;-32
2024/01/08 10:10:22;;;;;;;;;;;-0.20;99.90;;;;;;5072868;28;19974;-33
2024/01/08 10:12:49;;;;;;;;;;;-0.20;99.90;;;;;;5072784;28;19932;-31
2024/01/08 10:15:18;;;;;;;;;;;-0.20;99.90;;;;;;5073987;28;19924;-31
2024/01/08 10:17:45;;;;;;;;;;;-0.20;99.90;;;;;;5072762;28;19924;-31
2024/01/08 10:20:12;;;;;;;;;;;-0.10;99.90;;;;;;5073771;28;20022;-30
2024/01/08 10:22:38;;;;;;;;;;;-0.10;99.90;;;;;;5072498;28;19986;-32
2024/01/08 10:25:07;;;;;;;;;;;-0.10;99.90;;;;;;5072759;28;19970;-32
2024/01/08 10:27:33;;;;;;;;;;;-0.10;99.90;;;;;;5073472;28;20285;-32
2024/01/08 10:30:01;;;;;;;;;;;-0.20;99.90;;;;;;5072683;28;19985;-32
2024/01/08 10:32:27;;;;;;;;;;;-0.20;99.90;;;;;;5073725;28;20027;-31
2024/01/08 10:34:55;;;;;;;;;;;-0.20;99.90;;;;;;5072329;28;19928;-32
2024/01/08 10:37:21;;;;;;;;;;;-0.20;99.90;;;;;;5072370;28;20307;-32
2024/01/08 10:39:48;;;;;;;;;;;-0.10;99.90;;;;;;5071988;28;20002;-32
2024/01/08 10:42:16;;;;;;;;;;;-0.10;99.90;;;;;;5073057;28;19929;-32
2024/01/08 10:44:43;;;;;;;;;;;0.00;99.90;;;;;;5072181;28;19978;-31
2024/01/08 10:47:10;;;;;;;;;;;0.00;99.90;;;;;;5071861;28;19970;-32
2024/01/08 10:49:36;;;;;;;;;;;0.00;99.90;;;;;;5073083;28;19924;-32
2024/01/08 10:52:04;;;;;;;;;;;0.00;99.90;;;;;;5072053;28;19935;-32
2024/01/08 10:54:32;;;;;;;;;;;0.00;99.90;;;;;;5072185;28;19977;-32
2024/01/08 10:57:00;;;;;;;;;;;0.00;99.90;;;;;;5073042;28;20415;-32
2024/01/08 10:59:29;;;;;;;;;;;0.10;99.90;;;;;;5071876;28;20002;-31
2024/01/08 11:01:56;;;;;;;;;;;0.10;99.90;;;;;;5071939;28;19970;-32
2024/01/08 11:04:23;;;;;;;;;;;0.20;99.90;;;;;;5072023;28;19924;-32
2024/01/08 11:06:49;;;;;;;;;;;0.20;99.90;;;;;;5071790;28;19959;-31
2024/01/08 11:09:26;;;;;;;;;;;0.20;99.90;;;;;;5072553;28;19936;-32
2024/01/08 11:11:52;;;;;;;;;;;0.10;99.90;;;;;;5071809;28;19926;-32
2024/01/08 11:14:19;;;;;;;;;;;0.10;99.90;;;;;;5073030;28;19924;-31
2024/01/08 11:16:47;;;;;;;;;;;0.10;99.90;;;;;;5071662;28;19926;-32
2024/01/08 11:19:27;;;;;;;;;;;0.20;99.90;;;;;;5071362;28;19978;-31
2024/01/08 11:21:56;;;;;;;;;;;0.20;99.90;;;;;;5072652;28;20015;-32
2024/01/08 11:24:23;;;;;;;;;;;0.20;99.90;;;;;;5072875;28;19930;-31
2024/01/08 11:26:51;;;;;;;;;;;0.30;99.90;;;;;;5071793;28;19971;-31
2024/01/08 11:29:20;;;;;;;;;;;0.40;99.90;;;;;;5070714;28;20132;-32
2024/01/08 11:32:08;;;;;;;;;;;0.50;99.90;;;;;;5071546;28;19974;-32
2024/01/08 11:34:56;;;;;;;;;;;0.50;99.90;;;;;;5071765;28;19947;-32
2024/01/08 11:37:32;;;;;;;;;;;0.50;99.90;;;;;;5071851;28;20015;-32
2024/01/08 11:40:00;;;;;;;;;;;0.50;99.90;;;;;;5071387;28;19974;-32
2024/01/08 11:42:27;;;;;;;;;;;0.50;99.90;;;;;;5071888;28;19924;-32
2024/01/08 11:44:53;;;;;;;;;;;0.50;99.90;;;;;;5071661;28;19974;-32
2024/01/08 11:47:20;;;;;;;;;;;0.50;99.90;;;;;;5071161;28;19925;-32
2024/01/08 11:49:49;;;;;;;;;;;0.50;99.90;;;;;;5071416;28;19962;-33
2024/01/08 11:52:17;;;;;;;;;;;0.40;99.90;;;;;;5071504;28;19935;-31
2024/01/08 11:54:48;;;;;;;;;;;0.50;99.90;;;;;;5071317;28;19978;-33
2024/01/08 11:57:15;;;;;;;;;;;0.40;99.90;;;;;;5071511;28;20329;-32
2024/01/08 11:59:41;;;;;;;;;;;0.50;99.90;;;;;;5071106;28;19924;-31
2024/01/08 12:02:10;;;;;;;;;;;0.50;99.90;;;;;;5072646;28;20343;-33
2024/01/08 12:04:37;;;;;;;;;;;0.50;99.90;;;;;;5071593;28;20376;-32
2024/01/08 12:07:04;;;;;;;;;;;0.60;99.90;;;;;;5071245;28;19974;-32
2024/01/08 12:09:32;;;;;;;;;;;0.80;99.90;;;;;;5071587;28;20073;-33
2024/01/08 12:12:03;;;;;;;;;;;0.90;99.90;;;;;;5072185;28;19978;-32
2024/01/08 12:14:29;;;;;;;;;;;1.10;99.90;;;;;;5071045;28;19970;-31
2024/01/08 12:16:56;;;;;;;;;;;1.20;99.90;;;;;;5071396;28;19977;-32
2024/01/08 12:19:23;;;;;;;;;;;1.20;99.90;;;;;;5073235;28;20360;-32
2024/01/08 12:21:49;;;;;;;;;;;1.20;99.90;;;;;;5075150;28;19954;-32
2024/01/08 12:24:16;;;;;;;;;;;1.30;99.90;;;;;;5074770;28;19978;-32
2024/01/08 12:26:44;;;;;;;;;;;1.30;99.90;;;;;;5075115;28;19924;-32
2024/01/08 12:29:10;;;;;;;;;;;1.20;99.90;;;;;;5076132;28;20323;-32
2024/01/08 12:31:39;;;;;;;;;;;1.10;99.90;;;;;;5075086;28;19925;-32
2024/01/08 12:34:05;;;;;;;;;;;1.00;99.90;;;;;;5075615;28;19928;-32
2024/01/08 12:36:32;;;;;;;;;;;0.90;99.90;;;;;;5074448;28;19924;-33
2024/01/08 12:38:59;;;;;;;;;;;0.80;99.90;;;;;;5075698;28;19932;-31
2024/01/08 12:41:25;;;;;;;;;;;0.70;99.90;;;;;;5071954;28;19928;-32
2024/01/08 12:43:53;;;;;;;;;;;0.60;99.90;;;;;;5073921;28;20434;-33
2024/01/08 12:46:20;;;;;;;;;;;0.50;99.90;;;;;;5074360;28;19925;-32
2024/01/08 12:48:47;;;;;;;;;;;0.50;99.90;;;;;;5075770;28;20007;-32
2024/01/08 12:51:13;;;;;;;;;;;0.40;99.90;;;;;;5057887;28;20383;-32
2024/01/08 12:53:40;;;;;;;;;;;0.30;99.90;;;;;;5071440;28;19973;-32
2024/01/08 12:56:07;;;;;;;;;;;0.30;99.90;;;;;;5078033;28;19924;-32
2024/01/08 12:58:33;;;;;;;;;;;0.30;99.90;;;;;;5076648;28;19967;-32
2024/01/08 13:01:01;;;;;;;;;;;0.30;99.90;;;;;;5077540;28;19928;-31
2024/01/08 13:03:28;;;;;;;;;;;0.30;99.90;;;;;;5077650;28;19992;-33
2024/01/08 13:05:55;;;;;;;;;;;0.30;99.90;;;;;;5077634;28;19924;-33
2024/01/08 13:08:21;;;;;;;;;;;0.40;99.90;;;;;;5077270;28;19924;-32
2024/01/08 13:10:48;;;;;;;;;;;0.40;99.90;;;;;;5095337;28;19925;-33
2024/01/08 13:13:15;;;;;;;;;;;0.40;99.90;;;;;;5095304;28;20273;-33
2024/01/08 13:15:41;;;;;;;;;;;0.40;99.90;;;;;;5095659;28;20021;-32
2024/01/08 13:18:10;;;;;;;;;;;0.50;99.90;;;;;;5095507;28;19923;-33
2024/01/08 13:20:36;;;;;;;;;;;0.50;99.90;;;;;;5076686;28;20391;-33
2024/01/08 13:23:03;;;;;;;;;;;0.50;99.90;;;;;;5077203;28;19924;-32
2024/01/08 13:25:30;;;;;;;;;;;0.60;99.90;;;;;;5077141;28;20356;-33
2024/01/08 13:27:57;;;;;;;;;;;0.50;99.90;;;;;;5074065;28;20387;-33
2024/01/08 13:30:23;;;;;;;;;;;0.50;99.90;;;;;;5075974;28;19974;-32
2024/01/08 13:32:50;;;;;;;;;;;0.50;99.90;;;;;;5094690;28;19924;-31
2024/01/08 13:35:18;;;;;;;;;;;0.60;99.90;;;;;;5094553;28;20433;-32
2024/01/08 13:37:45;;;;;;;;;;;0.60;99.90;;;;;;5076911;28;20268;-33
2024/01/08 13:40:13;;;;;;;;;;;0.60;99.90;;;;;;5094461;28;20292;-31
2024/01/08 13:42:39;;;;;;;;;;;0.60;99.90;;;;;;5094617;28;20360;-32
2024/01/08 13:45:08;;;;;;;;;;;0.70;99.90;;;;;;5076588;28;19939;-33
2024/01/08 13:47:34;;;;;;;;;;;0.60;99.90;;;;;;5081308;28;19924;-32
2024/01/08 13:50:01;;;;;;;;;;;0.60;99.90;;;;;;5093467;28;19969;-32
2024/01/08 13:52:29;;;;;;;;;;;0.60;99.90;;;;;;5093594;28;19973;-33
2024/01/08 13:54:56;;;;;;;;;;;0.60;99.90;;;;;;5081638;28;19928;-33
2024/01/08 13:57:22;;;;;;;;;;;0.60;99.90;;;;;;5071500;28;19974;-31
2024/01/08 13:59:49;;;;;;;;;;;0.60;99.90;;;;;;5073091;28;19965;-31
2024/01/08 14:02:16;;;;;;;;;;;0.50;99.90;;;;;;5072804;28;19967;-32
2024/01/08 14:04:44;;;;;;;;;;;0.50;99.90;;;;;;5073103;28;20367;-31
2024/01/08 14:07:10;;;;;;;;;;;0.50;99.90;;;;;;5072582;28;19976;-32
2024/01/08 14:09:38;;;;;;;;;;;0.40;99.90;;;;;;5072638;28;19970;-32
2024/01/08 14:12:05;;;;;;;;;;;0.40;99.90;;;;;;5071547;28;19925;-31
2024/01/08 14:14:37;;;;;;;;;;;0.40;99.90;;;;;;5072648;28;20364;-32
2024/01/08 14:17:04;;;;;;;;;;;0.40;99.90;;;;;;5072709;28;19971;-30
2024/01/08 14:19:31;;;;;;;;;;;0.30;99.90;;;;;;5072653;28;19925;-31
2024/01/08 14:21:57;;;;;;;;;;;0.30;99.90;;;;;;5073943;28;19924;-31